createdAt,value
2023-03-20T00:01:21.582Z,0.80
2023-03-20T00:03:48.366Z,0.77
2023-03-20T00:06:17.547Z,0.60
2023-03-20T00:08:45.949Z,0.40
2023-03-20T00:11:28.713Z,0.90
2023-03-20T00:13:57.574Z,0.40
2023-03-20T00:16:27.092Z,0.43
2023-03-20T00:18:53.678Z,0.52
2023-03-20T00:21:20.406Z,0.60
2023-03-20T00:23:47.729Z,0.38
2023-03-20T00:26:18.244Z,0.52
2023-03-20T00:28:47.914Z,0.40
2023-03-20T00:31:47.189Z,0.70
2023-03-20T00:34:17.225Z,0.68
2023-03-20T00:36:46.358Z,0.70
2023-03-20T00:39:13.064Z,0.60
2023-03-20T00:41:39.542Z,0.73
2023-03-20T00:44:15.182Z,0.45
2023-03-20T00:46:41.888Z,0.70
2023-03-20T00:49:11.791Z,0.47
2023-03-20T00:51:39.656Z,0.30
2023-03-20T00:54:13.214Z,0.60
2023-03-20T00:56:46.260Z,0.55
2023-03-20T00:59:22.588Z,1.00
2023-03-20T01:01:49.284Z,0.57
2023-03-20T01:04:19.288Z,0.57
2023-03-20T01:06:45.926Z,0.75
2023-03-20T01:09:12.910Z,0.30
2023-03-20T01:11:40.974Z,0.50
2023-03-20T01:14:14.671Z,0.35
2023-03-20T01:16:41.594Z,0.90
2023-03-20T01:19:12.887Z,0.82
2023-03-20T01:21:39.516Z,0.45
2023-03-20T01:24:06.418Z,0.50
2023-03-20T01:26:39.086Z,0.47
2023-03-20T01:29:20.741Z,0.60
2023-03-20T01:31:48.368Z,0.30
2023-03-20T01:34:16.675Z,0.60
2023-03-20T01:36:53.323Z,0.57
2023-03-20T01:39:32.180Z,0.40
2023-03-20T01:41:59.493Z,0.30
2023-03-20T01:44:34.484Z,0.47
2023-03-20T01:47:03.007Z,0.75
2023-03-20T01:49:29.734Z,0.57
2023-03-20T01:52:01.108Z,0.43
2023-03-20T01:54:38.887Z,0.55
2023-03-20T01:57:13.434Z,0.43
2023-03-20T02:00:05.551Z,0.52
2023-03-20T02:02:44.452Z,0.40
2023-03-20T02:05:17.708Z,0.50
2023-03-20T02:07:51.023Z,0.63
2023-03-20T02:12:55.583Z,0.50
2023-03-20T02:16:07.542Z,0.40
2023-03-20T02:18:56.597Z,0.30
2023-03-20T02:21:33.121Z,0.25
2023-03-20T02:24:33.955Z,0.45
2023-03-20T02:27:33.327Z,0.50
2023-03-20T02:30:42.909Z,0.50
2023-03-20T02:33:09.581Z,0.47
2023-03-20T02:36:02.989Z,0.35
2023-03-20T02:38:54.436Z,0.20
2023-03-20T02:41:26.960Z,0.40
2023-03-20T02:44:03.574Z,0.40
2023-03-20T02:46:55.002Z,0.40
2023-03-20T02:49:30.326Z,0.60
2023-03-20T02:52:16.854Z,0.47
2023-03-20T02:54:47.518Z,0.20
2023-03-20T02:57:36.372Z,0.55
2023-03-20T03:00:10.354Z,0.30
2023-03-20T03:02:47.145Z,0.32
2023-03-20T03:05:21.603Z,0.40
2023-03-20T03:07:52.026Z,0.30
2023-03-20T03:10:30.302Z,0.43
2023-03-20T03:12:58.739Z,0.60
2023-03-20T03:15:34.514Z,0.28
2023-03-20T03:18:05.204Z,0.20
2023-03-20T03:20:35.959Z,0.40
2023-03-20T03:23:03.877Z,0.45
2023-03-20T03:25:35.048Z,0.22
2023-03-20T03:28:25.274Z,0.30
2023-03-20T03:30:53.763Z,0.45
2023-03-20T03:33:27.203Z,0.30
2023-03-20T03:36:05.603Z,0.32
2023-03-20T03:38:58.514Z,0.45
2023-03-20T03:41:35.048Z,0.30
2023-03-20T03:44:07.670Z,0.50
2023-03-20T03:47:11.528Z,0.50
2023-03-20T03:49:46.033Z,0.50
2023-03-20T03:52:17.375Z,0.35
2023-03-20T03:55:07.625Z,0.32
2023-03-20T03:57:49.310Z,0.28
2023-03-20T04:00:21.884Z,0.38
2023-03-20T04:02:53.426Z,0.40
2023-03-20T04:05:21.496Z,0.43
2023-03-20T04:07:53.083Z,0.30
2023-03-20T04:10:19.655Z,0.52
2023-03-20T04:12:46.289Z,0.40
2023-03-20T04:15:14.549Z,0.40
2023-03-20T04:17:41.798Z,0.50
2023-03-20T04:20:10.758Z,0.30
2023-03-20T04:22:37.289Z,0.60
2023-03-20T04:25:09.261Z,0.60
2023-03-20T04:27:36.005Z,0.43
2023-03-20T04:30:11.261Z,0.50
2023-03-20T04:32:57.335Z,0.40
2023-03-20T04:35:32.109Z,0.52
2023-03-20T04:38:03.714Z,0.40
2023-03-20T04:40:32.927Z,0.25
2023-03-20T04:42:59.482Z,0.43
2023-03-20T04:45:26.308Z,0.32
2023-03-20T04:47:53.019Z,0.30
2023-03-20T04:50:21.664Z,0.40
2023-03-20T04:52:50.214Z,0.43
2023-03-20T04:55:16.868Z,0.47
2023-03-20T04:57:43.627Z,0.30
2023-03-20T05:00:12.207Z,0.40
2023-03-20T05:02:38.796Z,0.50
2023-03-20T05:05:05.741Z,0.40
2023-03-20T05:07:35.317Z,0.40
2023-03-20T05:10:07.012Z,0.60
2023-03-20T05:12:42.808Z,0.77
2023-03-20T05:15:27.227Z,0.60
2023-03-20T05:18:14.106Z,0.70
2023-03-20T05:20:59.374Z,0.50
2023-03-20T05:23:46.176Z,0.52
2023-03-20T05:26:32.180Z,0.50
2023-03-20T05:29:15.424Z,0.50
2023-03-20T05:31:48.115Z,0.52
2023-03-20T05:34:25.926Z,0.47
2023-03-20T05:37:01.191Z,0.80
2023-03-20T05:40:03.542Z,0.47
2023-03-20T05:42:36.247Z,0.60
2023-03-20T05:45:15.551Z,0.47
2023-03-20T05:47:44.790Z,1.00
2023-03-20T05:50:14.338Z,0.70
2023-03-20T05:52:53.620Z,0.60
2023-03-20T05:55:23.944Z,0.98
2023-03-20T05:58:09.399Z,0.85
2023-03-20T06:01:02.310Z,0.50
2023-03-20T06:03:56.840Z,0.60
2023-03-20T06:06:48.146Z,0.80
2023-03-20T06:09:14.897Z,1.25
2023-03-20T06:11:41.545Z,0.57
2023-03-20T06:14:08.352Z,1.02
2023-03-20T06:16:38.457Z,0.60
2023-03-20T06:19:05.516Z,1.05
2023-03-20T06:21:32.552Z,0.77
2023-03-20T06:23:59.927Z,0.90
2023-03-20T06:26:28.015Z,0.98
2023-03-20T06:29:01.782Z,1.05
2023-03-20T06:31:28.537Z,1.30
2023-03-20T06:33:55.487Z,0.80
2023-03-20T06:36:22.383Z,1.05
2023-03-20T06:38:53.424Z,0.80
2023-03-20T06:41:33.709Z,0.93
2023-03-20T06:44:03.661Z,0.60
2023-03-20T06:46:50.476Z,1.30
2023-03-20T06:49:17.089Z,1.15
2023-03-20T06:51:45.231Z,0.50
2023-03-20T06:54:11.860Z,0.65
2023-03-20T06:56:38.410Z,0.70
2023-03-20T06:59:05.013Z,0.70
2023-03-20T07:01:31.908Z,0.80
2023-03-20T07:03:59.077Z,0.90
2023-03-20T07:06:30.949Z,1.05
2023-03-20T07:08:58.138Z,0.73
2023-03-20T07:11:24.928Z,0.90
2023-03-20T07:13:54.094Z,0.70
2023-03-20T07:16:31.282Z,0.40
2023-03-20T07:18:57.992Z,0.90
2023-03-20T07:21:25.561Z,0.70
2023-03-20T07:23:53.750Z,0.90
2023-03-20T07:26:20.660Z,1.02
2023-03-20T07:28:47.232Z,1.02
2023-03-20T07:31:25.829Z,0.43
2023-03-20T07:34:01.148Z,0.50
2023-03-20T07:36:27.762Z,0.52
2023-03-20T07:38:54.286Z,0.70
2023-03-20T07:41:20.842Z,0.90
2023-03-20T07:43:58.467Z,0.80
2023-03-20T07:46:54.557Z,0.60
2023-03-20T07:49:23.098Z,0.50
2023-03-20T07:51:50.772Z,0.70
2023-03-20T07:54:17.765Z,0.90
2023-03-20T07:56:44.336Z,0.75
2023-03-20T07:59:11.887Z,0.75
2023-03-20T08:01:38.480Z,0.90
2023-03-20T08:04:05.911Z,0.93
2023-03-20T08:06:32.548Z,1.00
2023-03-20T08:08:59.509Z,0.95
2023-03-20T08:11:26.350Z,0.82
2023-03-20T08:13:52.889Z,0.98
2023-03-20T08:16:19.509Z,0.90
2023-03-20T08:18:46.221Z,0.85
2023-03-20T08:21:12.863Z,0.85
2023-03-20T08:23:39.423Z,0.70
2023-03-20T08:26:06.036Z,0.90
2023-03-20T08:28:46.541Z,0.80
2023-03-20T08:31:15.280Z,1.10
2023-03-20T08:33:41.891Z,1.02
2023-03-20T08:36:08.691Z,1.10
2023-03-20T08:38:35.878Z,0.80
2023-03-20T08:41:02.906Z,0.70
2023-03-20T08:43:29.806Z,0.70
2023-03-20T08:45:56.459Z,0.70
2023-03-20T08:48:23.216Z,0.75
2023-03-20T08:50:49.828Z,0.82
2023-03-20T08:53:16.590Z,0.68
2023-03-20T08:55:51.185Z,0.70
2023-03-20T08:58:18.705Z,0.50
2023-03-20T09:00:45.527Z,0.60
2023-03-20T09:03:14.729Z,0.80
2023-03-20T09:05:43.936Z,0.88
2023-03-20T09:08:10.560Z,0.68
2023-03-20T09:10:37.603Z,0.57
2023-03-20T09:13:19.567Z,0.75
2023-03-20T09:15:51.473Z,0.90
2023-03-20T09:18:19.806Z,0.77
2023-03-20T09:20:47.872Z,0.45
2023-03-20T09:23:14.418Z,0.68
2023-03-20T09:25:40.979Z,0.63
2023-03-20T09:28:07.654Z,0.60
2023-03-20T09:30:34.660Z,0.52
2023-03-20T09:33:01.409Z,0.65
2023-03-20T09:35:28.210Z,0.50
2023-03-20T09:37:54.840Z,0.50
2023-03-20T09:40:33.886Z,0.45
2023-03-20T09:43:28.087Z,0.77
2023-03-20T09:46:11.339Z,0.52
2023-03-20T09:48:44.165Z,0.50
2023-03-20T09:51:41.404Z,0.40
2023-03-20T09:54:22.645Z,0.63
2023-03-20T09:56:51.172Z,0.50
2023-03-20T09:59:20.278Z,0.43
2023-03-20T10:01:57.227Z,0.40
2023-03-20T10:04:29.230Z,0.30
2023-03-20T10:06:56.762Z,0.20
2023-03-20T10:09:25.799Z,0.45
2023-03-20T10:12:06.589Z,0.50
2023-03-20T10:15:10.645Z,0.38
2023-03-20T10:18:03.600Z,0.40
2023-03-20T10:20:36.288Z,0.40
2023-03-20T10:23:18.314Z,0.30
2023-03-20T10:25:50.981Z,0.38
2023-03-20T10:28:23.925Z,0.40
2023-03-20T10:31:13.546Z,0.30
2023-03-20T10:33:58.908Z,0.40
2023-03-20T10:36:36.032Z,0.45
2023-03-20T10:39:35.375Z,0.30
2023-03-20T10:42:04.242Z,0.20
2023-03-20T10:44:40.731Z,0.20
2023-03-20T10:47:11.649Z,0.40
2023-03-20T10:49:48.951Z,0.28
2023-03-20T10:52:22.945Z,0.40
2023-03-20T10:54:57.960Z,0.47
2023-03-20T10:57:27.786Z,0.70
2023-03-20T10:59:58.338Z,0.30
2023-03-20T11:02:30.622Z,0.20
2023-03-20T11:05:00.016Z,0.30
2023-03-20T11:07:37.975Z,0.55
2023-03-20T11:10:07.937Z,0.60
2023-03-20T11:12:42.991Z,0.20
2023-03-20T11:15:33.176Z,0.50
2023-03-20T11:18:05.546Z,0.30
2023-03-20T11:20:56.313Z,0.60
2023-03-20T11:23:30.107Z,0.30
2023-03-20T11:26:04.534Z,0.22
2023-03-20T11:28:41.767Z,0.40
2023-03-20T11:31:11.481Z,0.38
2023-03-20T11:33:41.037Z,0.40
2023-03-20T11:36:30.060Z,0.28
2023-03-20T11:39:16.781Z,0.28
2023-03-20T11:41:49.953Z,0.35
2023-03-20T11:44:33.005Z,0.30
2023-03-20T11:47:03.563Z,0.50
2023-03-20T11:49:45.698Z,0.30
2023-03-20T11:52:16.839Z,0.20
2023-03-20T11:54:49.904Z,0.32
2023-03-20T11:57:40.044Z,0.33
2023-03-20T12:00:22.973Z,0.43
2023-03-20T12:02:50.655Z,0.45
2023-03-20T12:05:30.045Z,0.50
2023-03-20T12:08:10.287Z,0.30
2023-03-20T12:10:42.355Z,0.40
2023-03-20T12:13:22.437Z,0.40
2023-03-20T12:16:21.467Z,0.30
2023-03-20T12:18:52.328Z,0.30
2023-03-20T12:21:38.992Z,0.40
2023-03-20T12:24:15.017Z,0.30
2023-03-20T12:27:00.904Z,0.30
2023-03-20T12:29:31.963Z,0.30
2023-03-20T12:32:04.890Z,0.22
2023-03-20T12:34:55.548Z,0.30
2023-03-20T12:37:22.700Z,0.40
2023-03-20T12:40:01.291Z,0.40
2023-03-20T12:43:00.136Z,0.30
2023-03-20T12:45:44.978Z,0.40
2023-03-20T12:48:47.572Z,0.30
2023-03-20T12:51:40.593Z,0.40
2023-03-20T12:54:44.880Z,0.30
2023-03-20T12:57:30.877Z,0.30
2023-03-20T13:00:08.096Z,0.35
2023-03-20T13:02:54.176Z,0.40
2023-03-20T13:05:20.839Z,0.47
2023-03-20T13:07:47.334Z,0.40
2023-03-20T13:10:28.737Z,0.30
2023-03-20T13:13:00.000Z,0.22
2023-03-20T13:15:52.552Z,0.32
2023-03-20T13:18:39.459Z,0.43
2023-03-20T13:21:12.230Z,0.30
2023-03-20T13:24:06.817Z,0.30
2023-03-20T13:26:41.565Z,0.20
2023-03-20T13:29:38.725Z,0.40
2023-03-20T13:32:35.892Z,0.30
2023-03-20T13:35:25.507Z,0.50
2023-03-20T13:37:56.233Z,0.45
2023-03-20T13:40:37.920Z,0.25
2023-03-20T13:43:16.842Z,0.40
2023-03-20T13:45:43.710Z,0.60
2023-03-20T13:48:46.192Z,0.30
2023-03-20T13:51:27.778Z,0.50
2023-03-20T13:54:12.808Z,0.40
2023-03-20T13:56:58.091Z,0.25
2023-03-20T13:59:36.454Z,0.30
2023-03-20T14:02:24.465Z,0.28
2023-03-20T14:04:57.795Z,0.38
2023-03-20T14:07:38.952Z,0.38
2023-03-20T14:10:20.745Z,0.38
2023-03-20T14:12:55.303Z,0.45
2023-03-20T14:15:26.253Z,0.30
2023-03-20T14:17:52.932Z,0.50
2023-03-20T14:20:38.967Z,0.50
2023-03-20T14:23:06.430Z,0.50
2023-03-20T14:25:41.767Z,0.40
2023-03-20T14:28:11.231Z,0.50
2023-03-20T14:30:45.837Z,0.10
2023-03-20T14:33:15.821Z,0.40
2023-03-20T14:35:50.270Z,0.40
2023-03-20T14:38:45.144Z,0.50
2023-03-20T14:41:37.999Z,0.50
2023-03-20T14:44:27.160Z,0.30
2023-03-20T14:47:24.522Z,0.50
2023-03-20T14:50:07.070Z,0.35
2023-03-20T14:52:38.918Z,0.50
2023-03-20T14:55:17.744Z,0.30
2023-03-20T14:57:55.762Z,0.30
2023-03-20T15:00:29.745Z,0.40
2023-03-20T15:03:05.873Z,0.40
